Terminal Aerodrome Forecast
Issued by NWS Bismarck, ND

Home | Current Version | Previous Version | Graphics & Text | Print | Product List | Glossary On
Versions: 1 2 3 4 5 6 7 8 9 10 11 12 13 14 15 16 17 18 19 20 21 22 23 24 25 26
000
FTUS43 KBIS 261153 AAA
TAFISN
TAF AMD
KISN 261153Z 2612/2712 27004KT 3/4SM BR OVC003
     FM261400 28004KT 6SM BR BKN015
     FM261500 28004KT P6SM BKN035
     FM261700 28006KT P6SM VCTS BKN050CB
      TEMPO 2619/2622 5SM -TSRA OVC040CB
     FM270200 35009KT P6SM OVC060
     FM271100 36004KT P6SM OVC030=

USA.gov is the U.S. government's official web portal to all federal, state and local government web resources and services.